Time;durP1;ratioP1;P1;durP2;ratioP2;P2;SDS_P1;SDS_P2;PMS_P1;PMS_P2;Temp;Humidity;BMP_temperature;BMP_pressure;BME280_temperature;BME280_humidity;BME280_pressure;Samples;Min_cycle;Max_cycle;Signal;HPM_P1;HPM_P2
2021/01/03 00:00:26;;;;;;;7.88;2.97;;;13.00;99.90;;;;;;4840041;29;20041;-79
2021/01/03 00:02:52;;;;;;;10.45;2.63;;;13.00;99.90;;;;;;4823624;29;20129;-79
2021/01/03 00:05:22;;;;;;;9.73;3.10;;;13.00;99.90;;;;;;4834344;29;20033;-79
2021/01/03 00:07:48;;;;;;;12.75;3.40;;;12.90;99.90;;;;;;4836360;29;20057;-79
2021/01/03 00:10:15;;;;;;;10.93;2.97;;;12.90;99.90;;;;;;4839604;29;20053;-76
2021/01/03 00:12:41;;;;;;;10.82;3.33;;;12.80;99.90;;;;;;4839783;29;20045;-78
2021/01/03 00:15:12;;;;;;;10.23;2.55;;;12.90;99.90;;;;;;4836834;29;20026;-79
2021/01/03 00:17:39;;;;;;;11.85;2.50;;;12.90;99.90;;;;;;4836572;29;20044;-79
2021/01/03 00:20:18;;;;;;;8.50;2.78;;;12.80;99.90;;;;;;4837883;29;20022;-77
2021/01/03 00:22:45;;;;;;;9.63;3.38;;;12.90;99.90;;;;;;4838537;29;20033;-77
2021/01/03 00:25:13;;;;;;;6.60;2.60;;;12.80;99.90;;;;;;4839247;29;20275;-77
2021/01/03 00:27:39;;;;;;;9.52;2.53;;;12.90;99.90;;;;;;4839015;29;20038;-80
2021/01/03 00:30:12;;;;;;;8.02;3.03;;;12.90;99.90;;;;;;4839576;29;20044;-76
2021/01/03 00:32:41;;;;;;;8.13;2.75;;;12.90;99.90;;;;;;4837567;29;20091;-77
2021/01/03 00:35:11;;;;;;;8.70;2.88;;;12.90;99.90;;;;;;4838631;29;20025;-77
2021/01/03 00:37:42;;;;;;;15.70;2.92;;;12.90;99.90;;;;;;4838535;29;20587;-78
2021/01/03 00:40:12;;;;;;;12.13;3.55;;;12.90;99.90;;;;;;4822673;29;20532;-77
2021/01/03 00:42:39;;;;;;;9.32;3.63;;;12.80;99.90;;;;;;4839508;29;20057;-80
2021/01/03 00:45:07;;;;;;;9.90;3.15;;;12.80;99.90;;;;;;4838622;29;20488;-78
2021/01/03 00:47:33;;;;;;;16.95;3.40;;;12.80;99.90;;;;;;4837934;29;20034;-79
2021/01/03 00:49:59;;;;;;;11.57;4.35;;;12.80;99.90;;;;;;4839374;29;20030;-79
2021/01/03 00:52:25;;;;;;;10.35;3.60;;;12.80;99.90;;;;;;4839230;29;20037;-78
2021/01/03 00:54:51;;;;;;;24.80;4.03;;;12.80;99.90;;;;;;4838595;29;20488;-77
2021/01/03 00:57:17;;;;;;;7.35;3.35;;;12.80;99.90;;;;;;4839209;29;20038;-80
2021/01/03 00:59:43;;;;;;;8.45;3.60;;;12.80;99.90;;;;;;4838945;29;20030;-80
2021/01/03 01:02:10;;;;;;;8.63;2.78;;;12.80;99.90;;;;;;4838218;29;20022;-78
2021/01/03 01:04:35;;;;;;;17.08;4.28;;;12.80;99.90;;;;;;4819663;29;20037;-78
2021/01/03 01:07:02;;;;;;;11.35;3.42;;;12.80;99.90;;;;;;4837766;29;21382;-79
2021/01/03 01:09:28;;;;;;;10.82;3.60;;;12.80;99.90;;;;;;4838816;29;20052;-79
2021/01/03 01:11:54;;;;;;;13.15;3.83;;;12.80;99.90;;;;;;4834542;29;20147;-82
2021/01/03 01:14:20;;;;;;;9.05;3.97;;;12.80;99.90;;;;;;4838637;29;20041;-78
2021/01/03 01:16:47;;;;;;;13.38;3.85;;;12.80;99.90;;;;;;4838099;29;20030;-78
2021/01/03 01:19:13;;;;;;;8.40;3.35;;;12.80;99.90;;;;;;4839111;29;20076;-78
2021/01/03 01:21:39;;;;;;;9.70;3.67;;;12.70;99.90;;;;;;4838128;29;20481;-77
2021/01/03 01:24:06;;;;;;;15.18;3.92;;;12.80;99.90;;;;;;4837307;29;20066;-82
2021/01/03 01:26:32;;;;;;;12.85;3.67;;;12.80;99.90;;;;;;4836260;29;20158;-82
2021/01/03 01:28:58;;;;;;;16.30;4.90;;;12.80;99.90;;;;;;4838650;29;20041;-79
2021/01/03 01:31:25;;;;;;;9.45;3.85;;;12.90;99.90;;;;;;4839143;29;20026;-78
2021/01/03 01:33:50;;;;;;;15.02;4.90;;;12.80;99.90;;;;;;4822275;29;20098;-78
2021/01/03 01:36:17;;;;;;;17.35;6.22;;;12.90;99.90;;;;;;4837216;29;20444;-82
2021/01/03 01:38:43;;;;;;;12.13;4.07;;;12.80;99.90;;;;;;4837859;29;20133;-78
2021/01/03 01:41:09;;;;;;;11.13;4.05;;;12.90;99.90;;;;;;4838420;29;20129;-79
2021/01/03 01:43:35;;;;;;;11.40;3.42;;;12.80;99.90;;;;;;4838328;29;20575;-78
2021/01/03 01:46:03;;;;;;;11.60;3.60;;;12.80;99.90;;;;;;4838515;29;20026;-78
2021/01/03 01:48:35;;;;;;;15.25;3.42;;;12.80;99.90;;;;;;4837686;29;20101;-78
2021/01/03 01:51:13;;;;;;;11.55;3.03;;;12.80;99.90;;;;;;4837924;29;20108;-78
2021/01/03 01:53:51;;;;;;;15.20;3.45;;;12.80;99.90;;;;;;4837543;29;20578;-78
2021/01/03 01:56:52;;;;;;;12.27;3.20;;;12.70;99.90;;;;;;4836745;29;20378;-79
2021/01/03 01:59:42;;;;;;;10.88;3.17;;;12.80;99.90;;;;;;4825971;29;20057;-78
2021/01/03 02:02:11;;;;;;;10.07;3.78;;;12.70;99.90;;;;;;4837306;29;20473;-78
2021/01/03 02:04:50;;;;;;;9.82;3.85;;;12.70;99.90;;;;;;4837750;29;20440;-76
2021/01/03 02:07:28;;;;;;;9.75;3.50;;;12.60;99.90;;;;;;4835679;29;20789;-76
2021/01/03 02:10:21;;;;;;;14.20;3.40;;;12.60;99.90;;;;;;4837285;29;20087;-77
2021/01/03 02:12:51;;;;;;;9.65;2.65;;;12.60;99.90;;;;;;4837086;29;20041;-77
2021/01/03 02:15:25;;;;;;;5.75;3.22;;;12.50;99.90;;;;;;4837949;29;20036;-76
2021/01/03 02:17:52;;;;;;;13.93;3.33;;;12.50;99.90;;;;;;4836591;29;20135;-77
2021/01/03 02:20:18;;;;;;;15.20;4.20;;;12.50;99.90;;;;;;4836986;29;20845;-77
2021/01/03 02:22:59;;;;;;;14.82;2.97;;;12.50;99.90;;;;;;4837262;29;20041;-77
2021/01/03 02:25:25;;;;;;;15.73;3.88;;;12.40;99.90;;;;;;4837998;29;20556;-76
2021/01/03 02:28:12;;;;;;;9.63;3.53;;;12.40;99.90;;;;;;4835533;29;20034;-77
2021/01/03 02:30:42;;;;;;;11.88;3.05;;;12.40;99.90;;;;;;4835525;29;20032;-77
2021/01/03 02:33:30;;;;;;;11.65;3.33;;;12.40;99.90;;;;;;4837455;29;20022;-77
2021/01/03 02:36:05;;;;;;;11.30;2.38;;;12.40;99.90;;;;;;4837718;29;20044;-78
2021/01/03 02:38:35;;;;;;;10.07;1.98;;;12.40;99.90;;;;;;4837344;29;20541;-78
2021/01/03 02:41:02;;;;;;;9.90;2.78;;;12.40;99.90;;;;;;4837490;29;20485;-78
2021/01/03 02:43:28;;;;;;;12.02;2.45;;;12.30;99.90;;;;;;4837977;29;20022;-78
2021/01/03 02:45:54;;;;;;;12.82;3.00;;;12.30;99.90;;;;;;4821070;29;20508;-79
2021/01/03 02:48:23;;;;;;;14.57;2.67;;;12.30;99.90;;;;;;4837357;29;20528;-78
2021/01/03 02:50:50;;;;;;;12.43;2.75;;;12.30;99.90;;;;;;4836264;29;20045;-78
2021/01/03 02:53:18;;;;;;;13.90;2.30;;;12.40;99.90;;;;;;4836363;29;20117;-77
2021/01/03 02:55:45;;;;;;;13.80;2.83;;;12.40;99.90;;;;;;4835512;29;20030;-78
2021/01/03 02:58:12;;;;;;;13.27;3.35;;;12.40;99.90;;;;;;4837046;29;20113;-78
2021/01/03 03:00:39;;;;;;;9.10;2.70;;;12.40;99.90;;;;;;4837435;29;20517;-79
2021/01/03 03:03:07;;;;;;;12.57;2.65;;;12.40;99.90;;;;;;4821760;29;20412;-78
2021/01/03 03:05:34;;;;;;;10.13;1.95;;;12.50;99.90;;;;;;4837122;29;20037;-77
2021/01/03 03:08:01;;;;;;;4.72;1.95;;;12.50;99.90;;;;;;4837626;29;20098;-77
2021/01/03 03:10:29;;;;;;;16.40;2.50;;;12.50;99.90;;;;;;4836969;29;20037;-80
2021/01/03 03:12:57;;;;;;;10.00;2.17;;;12.50;99.90;;;;;;4837973;29;20034;-77
2021/01/03 03:15:26;;;;;;;9.90;2.40;;;12.50;99.90;;;;;;4835717;29;20037;-77
2021/01/03 03:17:53;;;;;;;8.15;2.35;;;12.50;99.90;;;;;;4836976;29;20049;-79
2021/01/03 03:20:21;;;;;;;10.50;1.83;;;12.50;99.90;;;;;;4837238;29;20045;-77
2021/01/03 03:22:48;;;;;;;9.15;1.85;;;12.50;99.90;;;;;;4834550;29;20030;-79
2021/01/03 03:25:15;;;;;;;6.53;1.63;;;12.50;99.90;;;;;;4821021;29;20033;-80
2021/01/03 09:41:02;;;;;;;5.28;1.33;;;15.20;99.90;;;;;;4771676;24;20056;-81
2021/01/03 09:43:57;;;;;;;;;;;15.40;99.90;;;;;;4839382;29;20061;-81
2021/01/03 09:46:50;;;;;;;9.00;2.40;;;15.50;99.90;;;;;;4837190;29;20370;-82
2021/01/03 09:49:35;;;;;;;9.32;2.33;;;15.70;99.90;;;;;;4808940;29;20042;-83
2021/01/03 09:52:24;;;;;;;5.93;1.80;;;15.90;99.90;;;;;;4839466;29;20042;-81
2021/01/03 09:55:03;;;;;;;10.75;2.15;;;16.10;99.90;;;;;;4839024;29;20026;-80
2021/01/03 09:57:35;;;;;;;12.73;2.60;;;16.40;99.90;;;;;;4839423;29;20076;-81
2021/01/03 10:00:06;;;;;;;8.60;1.83;;;16.50;99.90;;;;;;4823233;29;20034;-80
2021/01/03 10:02:32;;;;;;;7.90;2.08;;;16.70;99.90;;;;;;4822373;29;20109;-81
2021/01/03 10:04:58;;;;;;;8.85;2.20;;;16.50;99.90;;;;;;4811062;29;20120;-80
2021/01/03 10:07:27;;;;;;;8.18;2.15;;;16.30;99.90;;;;;;4796462;29;20042;-80
2021/01/03 10:09:59;;;;;;;9.02;2.05;;;16.40;99.90;;;;;;4837673;29;20103;-81
2021/01/03 10:12:31;;;;;;;12.73;2.70;;;16.50;99.90;;;;;;4821170;29;20030;-81
2021/01/03 10:15:09;;;;;;;10.93;2.60;;;16.80;99.90;;;;;;4818211;29;20038;-80
2021/01/03 10:17:36;;;;;;;12.07;2.55;;;16.90;99.90;;;;;;4805780;29;20083;-81
2021/01/03 10:20:15;;;;;;;11.40;2.97;;;17.10;99.90;;;;;;4820481;29;20116;-81
2021/01/03 10:22:43;;;;;;;8.30;1.92;;;17.10;99.90;;;;;;4836162;29;20042;-81
2021/01/03 10:25:16;;;;;;;6.70;1.80;;;17.10;99.90;;;;;;4821049;29;20101;-81
2021/01/03 10:28:06;;;;;;;12.82;2.67;;;17.20;99.90;;;;;;4821160;29;20120;-80
2021/01/03 10:30:33;;;;;;;11.23;2.25;;;17.00;99.90;;;;;;4817950;29;20041;-82
2021/01/03 10:32:59;;;;;;;14.48;2.72;;;16.70;99.90;;;;;;4821104;29;20370;-82
2021/01/03 10:35:25;;;;;;;8.98;2.50;;;16.40;99.90;;;;;;4838659;29;20032;-82
2021/01/03 10:37:51;;;;;;;10.25;2.15;;;16.20;99.90;;;;;;4838061;29;20038;-83
2021/01/03 10:40:19;;;;;;;9.70;2.42;;;16.00;99.90;;;;;;4821937;29;20145;-83
2021/01/03 10:42:47;;;;;;;5.82;2.00;;;15.90;99.90;;;;;;4820775;29;20057;-82
2021/01/03 10:45:13;;;;;;;11.70;2.15;;;15.90;99.90;;;;;;4821458;29;20064;-82
2021/01/03 10:47:39;;;;;;;10.43;1.45;;;16.00;99.90;;;;;;4806854;29;20041;-82
2021/01/03 10:50:06;;;;;;;5.50;1.35;;;15.80;99.90;;;;;;4806846;29;20026;-81
2021/01/03 10:52:32;;;;;;;18.08;1.88;;;15.70;99.90;;;;;;4822515;29;20037;-85
2021/01/03 10:54:58;;;;;;;12.95;3.42;;;15.80;99.90;;;;;;4822594;29;20030;-85
2021/01/03 10:57:24;;;;;;;12.70;2.90;;;15.80;99.90;;;;;;4838946;29;20129;-83
2021/01/03 10:59:51;;;;;;;10.82;1.98;;;15.80;99.90;;;;;;4838183;29;20048;-81
2021/01/03 11:02:18;;;;;;;14.77;2.05;;;15.80;99.90;;;;;;4837569;29;20476;-83
2021/01/03 11:04:44;;;;;;;5.15;1.55;;;15.80;99.90;;;;;;4820627;29;20030;-86
2021/01/03 11:07:10;;;;;;;9.48;1.63;;;15.80;99.90;;;;;;4819988;29;20050;-83
2021/01/03 11:09:36;;;;;;;8.80;1.75;;;15.80;99.90;;;;;;4836135;29;20034;-78
2021/01/03 11:12:09;;;;;;;7.03;1.50;;;15.80;99.90;;;;;;4835622;29;20038;-79
2021/01/03 11:14:36;;;;;;;10.98;1.58;;;15.80;99.90;;;;;;4836983;29;20548;-79
2021/01/03 11:17:04;;;;;;;9.18;1.80;;;16.10;99.90;;;;;;4835141;29;20469;-78
2021/01/03 11:19:31;;;;;;;7.80;2.05;;;16.50;99.90;;;;;;4835897;29;20404;-77
2021/01/03 11:21:59;;;;;;;7.50;1.90;;;16.70;99.90;;;;;;4819198;29;20030;-78
2021/01/03 11:24:25;;;;;;;8.15;2.72;;;16.70;99.90;;;;;;4836541;29;20038;-77
2021/01/03 11:26:52;;;;;;;8.05;2.28;;;16.60;99.90;;;;;;4836803;29;20423;-78
2021/01/03 11:29:22;;;;;;;7.93;1.58;;;16.60;99.90;;;;;;4836996;29;20098;-78
2021/01/03 11:31:51;;;;;;;12.65;2.35;;;16.70;99.90;;;;;;4837072;29;20040;-78
2021/01/03 11:34:24;;;;;;;8.07;2.10;;;16.90;99.90;;;;;;4831611;29;20030;-80
2021/01/03 11:37:12;;;;;;;8.27;1.70;;;17.00;99.90;;;;;;4820345;29;20034;-78
2021/01/03 11:39:39;;;;;;;11.13;2.35;;;17.20;99.90;;;;;;4817854;29;20392;-77
2021/01/03 11:42:10;;;;;;;4.25;2.00;;;17.20;99.90;;;;;;4836326;29;20022;-77
2021/01/03 11:44:43;;;;;;;10.10;1.38;;;17.20;99.90;;;;;;4820655;29;20449;-78
2021/01/03 11:47:13;;;;;;;8.93;2.67;;;17.20;99.90;;;;;;4836473;29;20034;-78
2021/01/03 11:49:40;;;;;;;8.57;2.28;;;17.20;99.90;;;;;;4836234;29;20048;-78
2021/01/03 11:52:07;;;;;;;7.03;1.70;;;17.20;99.90;;;;;;4820256;29;20121;-78
2021/01/03 11:54:35;;;;;;;5.88;1.70;;;17.00;99.90;;;;;;4839398;29;20511;-79
2021/01/03 11:57:01;;;;;;;6.90;1.40;;;17.10;99.90;;;;;;4840037;29;20042;-80
2021/01/03 11:59:28;;;;;;;3.58;1.60;;;17.30;99.90;;;;;;4838463;29;20042;-79
2021/01/03 12:02:03;;;;;;;8.00;1.55;;;17.60;99.90;;;;;;4839756;29;20026;-78
2021/01/03 12:04:29;;;;;;;4.93;1.63;;;17.70;99.90;;;;;;4840422;29;20040;-79
2021/01/03 12:07:00;;;;;;;16.33;2.28;;;17.70;99.90;;;;;;4839790;29;20033;-78
2021/01/03 12:09:30;;;;;;;7.28;2.17;;;17.80;99.90;;;;;;4839113;29;20061;-78
2021/01/03 12:11:57;;;;;;;7.70;1.60;;;17.90;99.90;;;;;;4839790;29;20026;-78
2021/01/03 12:14:23;;;;;;;6.45;2.30;;;18.00;99.90;;;;;;4839931;29;20619;-78
2021/01/03 12:17:17;;;;;;;5.80;1.55;;;17.90;99.90;;;;;;4839686;29;20041;-78
2021/01/03 12:19:45;;;;;;;9.13;1.60;;;17.90;99.90;;;;;;4816318;29;20054;-78
2021/01/03 12:22:11;;;;;;;7.97;1.52;;;18.10;99.90;;;;;;4840329;29;20030;-77
2021/01/03 12:24:37;;;;;;;3.78;1.35;;;17.90;99.90;;;;;;4835973;29;20030;-77
2021/01/03 12:27:04;;;;;;;8.70;1.73;;;17.90;99.90;;;;;;4822737;29;20037;-77
2021/01/03 12:29:31;;;;;;;8.23;2.25;;;17.80;99.90;;;;;;4838200;29;20054;-77
2021/01/03 12:32:02;;;;;;;6.10;1.80;;;17.80;99.90;;;;;;4837380;29;20103;-80
2021/01/03 12:34:29;;;;;;;3.70;1.52;;;17.80;99.90;;;;;;4822205;29;20068;-79
2021/01/03 12:37:03;;;;;;;5.78;2.08;;;17.90;99.90;;;;;;4822714;29;20282;-78
2021/01/03 12:39:30;;;;;;;6.70;1.20;;;17.90;99.90;;;;;;4836373;29;20045;-79
2021/01/03 12:41:57;;;;;;;8.32;2.45;;;18.00;99.90;;;;;;4808090;29;20030;-77
2021/01/03 12:44:23;;;;;;;2.80;1.20;;;18.20;99.90;;;;;;4835076;29;20070;-77
2021/01/03 12:46:50;;;;;;;9.65;1.38;;;18.20;99.90;;;;;;4820292;29;20058;-77
2021/01/03 12:49:16;;;;;;;9.10;2.58;;;18.20;99.90;;;;;;4819174;29;20038;-77
2021/01/03 12:51:45;;;;;;;4.88;1.40;;;18.20;99.90;;;;;;4817320;29;20041;-77
2021/01/03 12:54:11;;;;;;;10.52;2.13;;;18.30;99.90;;;;;;4820710;29;20030;-76
2021/01/03 12:56:37;;;;;;;5.20;1.30;;;18.20;99.90;;;;;;4820707;29;20030;-78
2021/01/03 12:59:04;;;;;;;10.65;1.67;;;18.10;99.90;;;;;;4819147;29;20042;-76
2021/01/03 13:01:35;;;;;;;4.50;1.55;;;18.20;99.90;;;;;;4832581;29;20068;-78
2021/01/03 13:04:02;;;;;;;8.50;1.40;;;17.90;99.90;;;;;;4819702;29;20030;-77
2021/01/03 13:06:29;;;;;;;10.07;2.38;;;17.40;99.90;;;;;;4819284;29;20075;-77
2021/01/03 13:08:55;;;;;;;7.47;1.55;;;17.30;99.90;;;;;;4824190;29;20413;-76
2021/01/03 13:11:22;;;;;;;5.00;1.42;;;17.00;99.90;;;;;;4819820;29;20113;-77
2021/01/03 13:13:48;;;;;;;6.10;1.10;;;16.90;99.90;;;;;;4819164;29;20024;-76
2021/01/03 13:16:14;;;;;;;4.47;1.92;;;17.00;99.90;;;;;;4819512;29;20027;-77
2021/01/03 13:18:40;;;;;;;8.88;2.28;;;17.30;99.90;;;;;;4820510;29;20555;-76
2021/01/03 13:21:06;;;;;;;6.22;1.48;;;17.60;99.90;;;;;;4820042;29;20489;-76
2021/01/03 13:23:36;;;;;;;6.53;2.50;;;17.70;99.90;;;;;;4819923;29;20042;-76
2021/01/03 13:26:03;;;;;;;5.47;1.17;;;18.00;99.90;;;;;;4820296;29;20417;-77
2021/01/03 13:28:30;;;;;;;10.65;1.30;;;18.20;99.90;;;;;;4819683;29;20035;-75
2021/01/03 13:30:56;;;;;;;9.13;1.38;;;18.20;99.90;;;;;;4819780;29;20165;-75
2021/01/03 13:33:22;;;;;;;8.45;1.67;;;18.00;99.90;;;;;;4820189;29;20057;-75
2021/01/03 13:35:49;;;;;;;6.43;1.15;;;18.10;99.90;;;;;;4820181;29;20034;-75
2021/01/03 13:38:16;;;;;;;9.13;1.80;;;17.80;99.90;;;;;;4834066;29;20382;-76
2021/01/03 13:40:43;;;;;;;7.35;2.25;;;17.70;99.90;;;;;;4817146;29;20041;-75
2021/01/03 13:43:10;;;;;;;5.82;1.02;;;17.50;99.90;;;;;;4820530;29;20034;-76
2021/01/03 13:45:36;;;;;;;8.05;1.38;;;17.40;99.90;;;;;;4837920;29;20458;-75
2021/01/03 13:48:03;;;;;;;9.38;1.85;;;17.40;99.90;;;;;;4838186;29;20544;-76
2021/01/03 13:50:29;;;;;;;8.25;1.60;;;17.20;99.90;;;;;;4838384;29;20050;-75
2021/01/03 13:52:55;;;;;;;4.75;1.42;;;17.30;99.90;;;;;;4821496;29;20072;-75
2021/01/03 13:55:21;;;;;;;9.00;1.30;;;17.40;99.90;;;;;;4838152;29;20054;-75
2021/01/03 13:57:47;;;;;;;5.85;1.20;;;17.50;99.90;;;;;;4837630;29;20144;-75
2021/01/03 14:00:20;;;;;;;7.50;1.63;;;17.50;99.90;;;;;;4838584;29;20061;-75
2021/01/03 14:02:47;;;;;;;3.63;1.50;;;17.50;99.90;;;;;;4837074;29;20037;-76
2021/01/03 14:05:14;;;;;;;9.73;1.90;;;17.50;99.90;;;;;;4836952;29;20081;-75
2021/01/03 14:07:40;;;;;;;7.90;1.73;;;17.70;99.90;;;;;;4838111;29;20014;-75
2021/01/03 14:10:08;;;;;;;4.80;1.38;;;17.70;99.90;;;;;;4837687;29;20026;-75
2021/01/03 14:12:35;;;;;;;10.25;2.47;;;17.80;99.90;;;;;;4836306;29;20030;-75
2021/01/03 14:15:06;;;;;;;6.85;1.60;;;17.80;99.90;;;;;;4837335;29;20121;-75
2021/01/03 14:17:33;;;;;;;3.45;1.25;;;17.80;99.90;;;;;;4837203;29;20050;-76
2021/01/03 14:19:59;;;;;;;5.93;1.50;;;17.90;99.90;;;;;;4837792;29;20108;-75
2021/01/03 14:22:26;;;;;;;7.75;1.85;;;17.90;99.90;;;;;;4837743;29;20113;-78
2021/01/03 14:24:52;;;;;;;4.60;1.10;;;18.00;99.90;;;;;;4837405;29;20030;-78
2021/01/03 14:27:18;;;;;;;8.82;1.58;;;18.10;99.90;;;;;;4818977;29;20038;-77
2021/01/03 14:29:44;;;;;;;5.80;1.23;;;18.00;99.90;;;;;;4821538;29;20588;-76
2021/01/03 14:32:13;;;;;;;8.80;1.83;;;17.80;99.90;;;;;;4836810;29;20037;-76
2021/01/03 14:34:49;;;;;;;9.15;1.40;;;17.80;99.90;;;;;;4837433;29;20030;-77
2021/01/03 14:37:30;;;;;;;7.55;1.83;;;17.70;99.90;;;;;;4837237;29;20099;-76
2021/01/03 14:39:59;;;;;;;7.50;1.30;;;17.70;99.90;;;;;;4836426;29;20434;-76
2021/01/03 14:42:44;;;;;;;10.15;1.67;;;17.50;99.90;;;;;;4837439;29;20053;-76
2021/01/03 14:45:24;;;;;;;5.93;1.58;;;17.50;99.90;;;;;;4837129;29;20111;-76
2021/01/03 14:48:02;;;;;;;8.32;2.20;;;17.30;99.90;;;;;;4837220;29;20034;-76
2021/01/03 14:50:52;;;;;;;10.32;2.03;;;17.30;99.90;;;;;;4837408;29;20125;-76
2021/01/03 14:53:25;;;;;;;6.00;2.00;;;17.20;99.90;;;;;;4835064;29;20042;-76
2021/01/03 14:56:14;;;;;;;9.70;2.92;;;17.20;99.90;;;;;;4821068;29;20030;-76
2021/01/03 14:58:46;;;;;;;11.48;3.35;;;17.20;99.90;;;;;;4836201;29;20041;-77
2021/01/03 15:01:42;;;;;;;10.05;2.65;;;17.10;99.90;;;;;;4837130;29;20393;-77
2021/01/03 15:04:10;;;;;;;7.13;1.50;;;16.80;99.90;;;;;;4836492;29;20030;-76
2021/01/03 15:06:50;;;;;;;6.57;2.00;;;16.80;99.90;;;;;;4820482;29;20038;-76
2021/01/03 15:09:17;;;;;;;7.78;1.70;;;16.60;99.90;;;;;;4836452;29;20556;-78
2021/01/03 15:11:53;;;;;;;17.17;2.20;;;16.40;99.90;;;;;;4837125;29;20022;-77
2021/01/03 15:14:20;;;;;;;13.35;2.45;;;16.30;99.90;;;;;;4833303;29;20091;-78
2021/01/03 15:16:46;;;;;;;5.03;1.55;;;16.10;99.90;;;;;;4820604;29;20034;-77
2021/01/03 15:19:27;;;;;;;5.45;1.70;;;16.00;99.90;;;;;;4836928;29;20030;-77
2021/01/03 15:21:56;;;;;;;5.13;1.77;;;15.70;99.90;;;;;;4836363;29;20033;-77
2021/01/03 15:24:22;;;;;;;6.95;1.58;;;15.60;99.90;;;;;;4825438;29;20037;-76
2021/01/03 15:26:58;;;;;;;8.85;1.52;;;15.50;99.90;;;;;;4839359;29;20025;-78
2021/01/03 15:29:30;;;;;;;7.90;2.28;;;15.30;99.90;;;;;;4840740;29;20086;-77
2021/01/03 15:32:01;;;;;;;8.38;2.00;;;15.30;99.90;;;;;;4840693;29;20034;-77
2021/01/03 15:34:28;;;;;;;7.07;2.65;;;15.20;99.90;;;;;;4840590;29;20033;-77
2021/01/03 15:36:54;;;;;;;5.95;1.88;;;15.10;99.90;;;;;;4840792;29;20038;-78
2021/01/03 15:39:21;;;;;;;7.75;1.42;;;15.00;99.90;;;;;;4835074;29;20102;-77
2021/01/03 15:42:10;;;;;;;10.75;2.95;;;15.00;99.90;;;;;;4840107;29;20519;-76
2021/01/03 15:44:47;;;;;;;11.38;2.45;;;15.00;99.90;;;;;;4839648;29;20408;-76
2021/01/03 15:47:37;;;;;;;8.73;1.58;;;14.90;99.90;;;;;;4839501;29;20060;-76
2021/01/03 15:50:07;;;;;;;9.13;2.10;;;14.90;99.90;;;;;;4840212;29;20090;-77
2021/01/03 15:52:38;;;;;;;8.38;2.55;;;14.80;99.90;;;;;;4841737;29;20042;-76
2021/01/03 15:55:06;;;;;;;4.53;1.83;;;14.80;99.90;;;;;;4841751;29;20037;-77
2021/01/03 15:57:35;;;;;;;12.73;2.45;;;14.80;99.90;;;;;;4824322;29;20114;-77
2021/01/03 16:00:05;;;;;;;9.70;1.70;;;14.80;99.90;;;;;;4841044;29;20385;-76
2021/01/03 16:02:32;;;;;;;14.00;2.38;;;14.70;99.90;;;;;;4840581;29;20062;-77
2021/01/03 16:04:58;;;;;;;7.97;2.15;;;14.70;99.90;;;;;;4841934;29;20026;-77
2021/01/03 16:07:24;;;;;;;5.78;1.83;;;14.70;99.90;;;;;;4841065;29;20038;-77
2021/01/03 16:09:50;;;;;;;5.47;2.03;;;14.70;99.90;;;;;;4841596;29;20033;-77
2021/01/03 16:12:17;;;;;;;7.45;2.20;;;14.70;99.90;;;;;;4841562;29;20123;-77
2021/01/03 16:14:43;;;;;;;12.02;2.53;;;14.70;99.90;;;;;;4841368;29;20038;-77
2021/01/03 16:17:09;;;;;;;11.00;2.33;;;14.70;99.90;;;;;;4840786;29;20620;-77
2021/01/03 16:19:44;;;;;;;6.50;1.73;;;14.70;99.90;;;;;;4840535;29;20045;-77
2021/01/03 16:22:22;;;;;;;10.38;1.73;;;14.70;99.90;;;;;;4841308;29;20109;-77
2021/01/03 16:25:20;;;;;;;12.02;2.20;;;14.60;99.90;;;;;;4824871;29;20382;-77
2021/01/03 16:28:10;;;;;;;11.95;2.20;;;14.70;99.90;;;;;;4835271;29;20050;-77
2021/01/03 16:30:50;;;;;;;10.07;2.00;;;14.60;99.90;;;;;;4841313;29;20037;-77
2021/01/03 16:33:31;;;;;;;10.48;2.00;;;14.50;99.90;;;;;;4840936;29;20037;-78
2021/01/03 16:36:09;;;;;;;10.77;3.40;;;14.50;99.90;;;;;;4840775;29;20113;-77
2021/01/03 16:38:35;;;;;;;8.10;2.00;;;14.50;99.90;;;;;;4840223;29;20526;-77
2021/01/03 16:41:41;;;;;;;5.47;2.17;;;14.50;99.90;;;;;;4840906;29;20110;-77
2021/01/03 16:44:34;;;;;;;6.63;1.70;;;14.50;99.90;;;;;;4804432;29;20427;-77
2021/01/03 16:47:15;;;;;;;10.60;2.25;;;14.50;99.90;;;;;;4841094;29;20037;-77
2021/01/03 16:49:57;;;;;;;11.70;2.47;;;14.50;99.90;;;;;;4823699;29;20063;-77
2021/01/03 16:52:36;;;;;;;5.03;1.90;;;14.40;99.90;;;;;;4841103;29;20095;-77
2021/01/03 16:55:20;;;;;;;8.55;2.47;;;14.40;99.90;;;;;;4840660;29;20038;-77
2021/01/03 16:57:46;;;;;;;8.73;3.00;;;14.40;99.90;;;;;;4840506;29;20049;-77
2021/01/03 17:00:16;;;;;;;8.30;2.95;;;14.30;99.90;;;;;;4839968;29;20030;-77
2021/01/03 17:02:49;;;;;;;13.95;5.15;;;14.30;99.90;;;;;;4840608;29;20034;-77
2021/01/03 17:05:17;;;;;;;15.48;3.75;;;14.30;99.90;;;;;;4823986;29;20045;-77
2021/01/03 17:07:50;;;;;;;18.20;4.95;;;14.20;99.90;;;;;;4840439;29;20139;-79
2021/01/03 17:10:19;;;;;;;;;;;14.10;99.90;;;;;;4840353;29;20041;-76
2021/01/03 17:13:05;;;;;;;9.65;3.78;;;14.10;99.90;;;;;;4840565;29;20425;-77
2021/01/03 17:15:44;;;;;;;13.38;3.75;;;14.10;99.90;;;;;;4835418;29;20018;-76
2021/01/03 17:18:32;;;;;;;14.65;3.90;;;14.00;99.90;;;;;;4822174;29;20090;-83
2021/01/03 17:21:18;;;;;;;11.77;4.30;;;14.00;99.90;;;;;;4831054;29;20030;-76
2021/01/03 17:24:22;;;;;;;16.38;4.68;;;14.00;99.90;;;;;;4837195;29;20070;-76
2021/01/03 17:26:57;;;;;;;11.02;4.45;;;13.90;99.90;;;;;;4805294;29;20396;-77
2021/01/03 17:29:48;;;;;;;16.13;5.38;;;13.90;99.90;;;;;;4838282;29;20030;-76
2021/01/03 17:32:28;;;;;;;24.50;5.85;;;13.80;99.90;;;;;;4837994;29;20418;-76
2021/01/03 17:35:13;;;;;;;20.35;5.00;;;13.80;99.90;;;;;;4838898;29;20038;-77
2021/01/03 17:38:06;;;;;;;11.25;3.92;;;13.80;99.90;;;;;;4837972;29;20052;-77
2021/01/03 17:40:59;;;;;;;12.55;5.22;;;13.80;99.90;;;;;;4836806;29;20030;-78
2021/01/03 17:43:26;;;;;;;12.52;4.35;;;13.80;99.90;;;;;;4836772;29;20030;-77
2021/01/03 17:45:53;;;;;;;16.60;5.35;;;13.80;99.90;;;;;;4838249;29;20042;-75
2021/01/03 17:48:49;;;;;;;12.80;3.63;;;13.80;99.90;;;;;;4837525;29;20035;-74
2021/01/03 17:51:16;;;;;;;11.52;3.80;;;13.70;99.90;;;;;;4833327;29;20504;-78
2021/01/03 17:53:43;;;;;;;13.43;4.10;;;13.70;99.90;;;;;;4838330;29;20052;-76
2021/01/03 17:56:09;;;;;;;12.68;4.60;;;13.70;99.90;;;;;;4837778;29;20373;-76
2021/01/03 17:58:37;;;;;;;9.60;4.38;;;13.70;99.90;;;;;;4837287;29;20052;-76
2021/01/03 18:01:05;;;;;;;12.20;3.85;;;13.70;99.90;;;;;;4835236;29;20030;-77
2021/01/03 18:03:32;;;;;;;12.80;3.83;;;13.60;99.90;;;;;;4837740;29;20030;-76
2021/01/03 18:06:03;;;;;;;9.65;3.38;;;13.60;99.90;;;;;;4838563;29;20386;-78
2021/01/03 18:08:29;;;;;;;16.33;5.10;;;13.60;99.90;;;;;;4837940;29;20117;-77
2021/01/03 18:10:55;;;;;;;9.10;3.10;;;13.60;99.90;;;;;;4805867;29;20033;-77
2021/01/03 18:13:22;;;;;;;16.63;3.67;;;13.70;99.90;;;;;;4837231;29;20033;-74
2021/01/03 18:15:52;;;;;;;10.07;3.28;;;13.60;99.90;;;;;;4819937;29;20117;-77
2021/01/03 18:18:24;;;;;;;14.20;4.13;;;13.70;99.90;;;;;;4838088;29;20520;-81
2021/01/03 18:20:51;;;;;;;6.78;3.60;;;13.60;99.90;;;;;;4838448;29;20086;-77
2021/01/03 18:23:17;;;;;;;14.82;3.42;;;13.60;99.90;;;;;;4836372;29;20046;-76
2021/01/03 18:25:44;;;;;;;9.65;3.25;;;13.60;99.90;;;;;;4837534;29;20034;-74
2021/01/03 18:28:11;;;;;;;7.85;2.60;;;13.60;99.90;;;;;;4837826;29;20030;-74
2021/01/03 18:30:37;;;;;;;10.73;3.55;;;13.60;99.90;;;;;;4837686;29;20018;-74
2021/01/03 18:33:03;;;;;;;13.55;3.55;;;13.70;99.90;;;;;;4836508;29;20029;-74
2021/01/03 18:35:42;;;;;;;13.60;3.53;;;13.80;99.90;;;;;;4837633;29;20127;-77
2021/01/03 18:38:10;;;;;;;13.20;3.17;;;13.80;99.90;;;;;;4837727;29;20034;-78
2021/01/03 18:40:37;;;;;;;13.70;3.17;;;13.70;99.90;;;;;;4823557;29;20026;-78
2021/01/03 18:43:05;;;;;;;11.77;2.65;;;13.60;99.90;;;;;;4839363;29;20084;-78
2021/01/03 18:45:31;;;;;;;12.55;3.45;;;13.60;99.90;;;;;;4836731;29;20077;-77
2021/01/03 18:47:58;;;;;;;17.50;4.15;;;13.70;99.90;;;;;;4821383;29;20057;-76
2021/01/03 18:50:27;;;;;;;7.65;3.28;;;13.70;99.90;;;;;;4838063;29;20061;-76
2021/01/03 18:52:53;;;;;;;10.85;2.92;;;13.70;99.90;;;;;;4835463;29;20041;-76
2021/01/03 18:55:20;;;;;;;14.27;4.22;;;13.70;99.90;;;;;;4836975;29;20131;-76
2021/01/03 18:57:48;;;;;;;11.50;3.97;;;13.70;99.90;;;;;;4834479;29;20182;-77
2021/01/03 19:00:18;;;;;;;17.05;3.70;;;13.60;99.90;;;;;;4838451;29;20593;-76
2021/01/03 19:02:44;;;;;;;11.48;3.35;;;13.70;99.90;;;;;;4840434;29;20390;-78
2021/01/03 19:05:12;;;;;;;11.05;2.90;;;13.60;99.90;;;;;;4841867;29;20242;-79
2021/01/03 19:07:39;;;;;;;15.20;4.22;;;13.60;99.90;;;;;;4841276;29;20030;-78
2021/01/03 19:10:06;;;;;;;8.85;2.88;;;13.60;99.90;;;;;;4824729;29;20033;-76
2021/01/03 19:12:36;;;;;;;8.35;2.67;;;13.70;99.90;;;;;;4841170;29;20147;-86
2021/01/03 19:15:05;;;;;;;6.10;3.20;;;13.60;99.90;;;;;;4825214;29;20033;-75